sensor_id;sensor_type;location;lat;lon;timestamp;pressure;altitude;pressure_sealevel;temperature;humidity
52469;BME280;38381;53.688;10.776;2023-05-10T00:03:27;100630.00;;;12.61;53.44
52469;BME280;38381;53.688;10.776;2023-05-10T00:08:28;100623.09;;;12.54;53.50
52469;BME280;38381;53.688;10.776;2023-05-10T00:13:28;100620.53;;;12.40;53.82
52469;BME280;38381;53.688;10.776;2023-05-10T00:18:28;100611.00;;;12.47;53.78
52469;BME280;38381;53.688;10.776;2023-05-10T00:23:29;100602.31;;;12.42;53.76
52469;BME280;38381;53.688;10.776;2023-05-10T00:28:29;100595.44;;;12.28;54.10
52469;BME280;38381;53.688;10.776;2023-05-10T00:33:29;100589.38;;;12.22;54.50
52469;BME280;38381;53.688;10.776;2023-05-10T00:38:30;100583.31;;;12.26;54.47
52469;BME280;38381;53.688;10.776;2023-05-10T00:43:31;100581.59;;;12.17;54.99
52469;BME280;38381;53.688;10.776;2023-05-10T00:48:31;100571.25;;;12.02;55.73
52469;BME280;38381;53.688;10.776;2023-05-10T00:53:32;100577.31;;;12.04;55.09
52469;BME280;38381;53.688;10.776;2023-05-10T00:58:33;100568.66;;;12.00;55.43
52469;BME280;38381;53.688;10.776;2023-05-10T01:03:35;100568.66;;;11.93;55.92
52469;BME280;38381;53.688;10.776;2023-05-10T01:08:36;100567.78;;;11.97;55.80
52469;BME280;38381;53.688;10.776;2023-05-10T01:13:38;100557.41;;;11.91;56.32
52469;BME280;38381;53.688;10.776;2023-05-10T01:18:41;100559.16;;;11.88;56.82
52469;BME280;38381;53.688;10.776;2023-05-10T01:24:25;100553.94;;;11.79;56.98
52469;BME280;38381;53.688;10.776;2023-05-10T01:35:17;100543.56;;;11.64;57.64
52469;BME280;38381;53.688;10.776;2023-05-10T01:40:22;100542.69;;;11.74;57.31
52469;BME280;38381;53.688;10.776;2023-05-10T01:45:54;100543.59;;;11.67;57.39
52469;BME280;38381;53.688;10.776;2023-05-10T01:50:59;100541.84;;;11.61;58.11
52469;BME280;38381;53.688;10.776;2023-05-10T01:56:00;100532.31;;;11.63;58.51
52469;BME280;38381;53.688;10.776;2023-05-10T02:01:03;100536.66;;;11.57;58.41
52469;BME280;38381;53.688;10.776;2023-05-10T02:06:05;100533.22;;;11.48;59.04
52469;BME280;38381;53.688;10.776;2023-05-10T02:11:07;100532.31;;;11.48;59.04
52469;BME280;38381;53.688;10.776;2023-05-10T02:16:08;100530.63;;;11.41;59.23
52469;BME280;38381;53.688;10.776;2023-05-10T02:21:10;100527.16;;;11.39;59.63
52469;BME280;38381;53.688;10.776;2023-05-10T02:26:11;100524.56;;;11.33;59.71
52469;BME280;38381;53.688;10.776;2023-05-10T02:31:14;100539.28;;;11.32;59.89
52469;BME280;38381;53.688;10.776;2023-05-10T02:36:15;100535.81;;;11.28;59.90
52469;BME280;38381;53.688;10.776;2023-05-10T02:41:17;100531.50;;;11.20;60.42
52469;BME280;38381;53.688;10.776;2023-05-10T02:46:18;100535.81;;;11.21;60.76
52469;BME280;38381;53.688;10.776;2023-05-10T02:51:20;100527.16;;;11.10;61.16
52469;BME280;38381;53.688;10.776;2023-05-10T02:56:29;100522.84;;;11.05;61.21
52469;BME280;38381;53.688;10.776;2023-05-10T03:01:32;100523.69;;;11.00;61.32
52469;BME280;38381;53.688;10.776;2023-05-10T03:06:32;100534.06;;;10.94;61.80
52469;BME280;38381;53.688;10.776;2023-05-10T03:22:45;100534.06;;;10.94;61.49
52469;BME280;38381;53.688;10.776;2023-05-10T03:27:47;100534.94;;;10.96;61.73
52469;BME280;38381;53.688;10.776;2023-05-10T03:32:48;100535.78;;;10.95;62.06
52469;BME280;38381;53.688;10.776;2023-05-10T03:37:48;100540.97;;;10.79;62.38
52469;BME280;38381;53.688;10.776;2023-05-10T03:42:48;100527.16;;;10.85;62.49
52469;BME280;38381;53.688;10.776;2023-05-10T03:47:49;100520.19;;;10.82;62.64
52469;BME280;38381;53.688;10.776;2023-05-10T03:52:49;100515.03;;;10.81;62.69
52469;BME280;38381;53.688;10.776;2023-05-10T03:57:50;100513.28;;;10.86;62.81
52469;BME280;38381;53.688;10.776;2023-05-10T04:02:50;100508.97;;;10.88;62.94
52469;BME280;38381;53.688;10.776;2023-05-10T04:07:51;100518.50;;;10.83;63.00
52469;BME280;38381;53.688;10.776;2023-05-10T04:12:51;100512.44;;;10.93;63.07
52469;BME280;38381;53.688;10.776;2023-05-10T04:17:52;100503.81;;;11.14;62.29
52469;BME280;38381;53.688;10.776;2023-05-10T04:22:53;100506.41;;;11.03;62.23
52469;BME280;38381;53.688;10.776;2023-05-10T04:27:54;100511.59;;;10.97;62.58
52469;BME280;38381;53.688;10.776;2023-05-10T04:32:55;100515.06;;;11.05;63.01
52469;BME280;38381;53.688;10.776;2023-05-10T04:37:59;100515.06;;;11.05;62.42
52469;BME280;38381;53.688;10.776;2023-05-10T04:42:59;100511.56;;;11.17;62.37
52469;BME280;38381;53.688;10.776;2023-05-10T04:48:00;100507.28;;;11.30;61.75
52469;BME280;38381;53.688;10.776;2023-05-10T04:53:00;100517.63;;;11.27;61.98
52469;BME280;38381;53.688;10.776;2023-05-10T04:58:01;100521.13;;;11.32;62.17
52469;BME280;38381;53.688;10.776;2023-05-10T05:03:01;100528.00;;;11.52;61.85
52469;BME280;38381;53.688;10.776;2023-05-10T05:08:01;100521.09;;;11.44;62.44
52469;BME280;38381;53.688;10.776;2023-05-10T05:13:02;100519.34;;;11.59;61.68
52469;BME280;38381;53.688;10.776;2023-05-10T05:18:02;100520.19;;;11.72;61.74
52469;BME280;38381;53.688;10.776;2023-05-10T05:23:03;100522.81;;;11.55;62.16
52469;BME280;38381;53.688;10.776;2023-05-10T05:28:04;100523.66;;;11.74;61.95
52469;BME280;38381;53.688;10.776;2023-05-10T05:33:04;100514.09;;;11.82;61.04
52469;BME280;38381;53.688;10.776;2023-05-10T05:38:05;100510.59;;;12.04;60.96
52469;BME280;38381;53.688;10.776;2023-05-10T05:43:06;100515.84;;;11.81;61.59
52469;BME280;38381;53.688;10.776;2023-05-10T05:48:06;100518.41;;;11.83;61.49
52469;BME280;38381;53.688;10.776;2023-05-10T05:53:07;100521.88;;;11.97;61.31
52469;BME280;38381;53.688;10.776;2023-05-10T05:58:08;100512.25;;;12.18;61.19
52469;BME280;38381;53.688;10.776;2023-05-10T06:03:09;100514.00;;;12.19;61.16
52469;BME280;38381;53.688;10.776;2023-05-10T06:08:19;100517.38;;;12.38;60.72
52469;BME280;38381;53.688;10.776;2023-05-10T06:13:30;100514.66;;;12.64;59.74
52469;BME280;38381;53.688;10.776;2023-05-10T06:18:32;100512.81;;;12.77;59.31
52469;BME280;38381;53.688;10.776;2023-05-10T06:23:33;100517.81;;;13.09;59.39
52469;BME280;38381;53.688;10.776;2023-05-10T06:28:33;100518.38;;;13.46;57.88
52469;BME280;38381;53.688;10.776;2023-05-10T06:33:34;100516.38;;;13.73;57.55
52469;BME280;38381;53.688;10.776;2023-05-10T06:38:34;100512.94;;;13.69;57.52
52469;BME280;38381;53.688;10.776;2023-05-10T06:43:35;100518.41;;;14.24;55.59
52469;BME280;38381;53.688;10.776;2023-05-10T06:48:35;100518.47;;;14.84;53.78
52469;BME280;38381;53.688;10.776;2023-05-10T06:53:36;100517.97;;;14.58;53.91
52469;BME280;38381;53.688;10.776;2023-05-10T06:58:37;100518.88;;;15.14;52.21
52469;BME280;38381;53.688;10.776;2023-05-10T07:03:38;100516.69;;;14.88;51.66
52469;BME280;38381;53.688;10.776;2023-05-10T07:08:38;100511.78;;;15.22;52.82
52469;BME280;38381;53.688;10.776;2023-05-10T07:13:39;100518.16;;;15.04;52.09
52469;BME280;38381;53.688;10.776;2023-05-10T07:18:41;100517.88;;;15.73;52.17
52469;BME280;38381;53.688;10.776;2023-05-10T07:23:41;100503.50;;;15.95;51.29
52469;BME280;38381;53.688;10.776;2023-05-10T07:28:42;100511.88;;;15.66;50.84
52469;BME280;38381;53.688;10.776;2023-05-10T07:33:43;100527.59;;;15.64;51.39
52469;BME280;38381;53.688;10.776;2023-05-10T07:38:43;100523.06;;;15.76;51.22
52469;BME280;38381;53.688;10.776;2023-05-10T07:43:43;100519.13;;;15.52;51.86
52469;BME280;38381;53.688;10.776;2023-05-10T07:48:44;100530.66;;;15.89;51.63
52469;BME280;38381;53.688;10.776;2023-05-10T07:53:44;100521.09;;;15.87;51.80
52469;BME280;38381;53.688;10.776;2023-05-10T07:58:45;100516.22;;;16.14;52.14
52469;BME280;38381;53.688;10.776;2023-05-10T08:03:45;100529.94;;;16.25;51.13
52469;BME280;38381;53.688;10.776;2023-05-10T08:08:47;100533.41;;;16.27;50.77
52469;BME280;38381;53.688;10.776;2023-05-10T08:13:50;100528.13;;;15.85;51.58
52469;BME280;38381;53.688;10.776;2023-05-10T08:18:51;100522.56;;;16.44;52.34
52469;BME280;38381;53.688;10.776;2023-05-10T08:23:52;100522.59;;;16.83;51.01
52469;BME280;38381;53.688;10.776;2023-05-10T08:28:52;100528.38;;;16.58;50.02
52469;BME280;38381;53.688;10.776;2023-05-10T08:33:53;100523.72;;;16.71;50.60
52469;BME280;38381;53.688;10.776;2023-05-10T08:38:54;100525.34;;;17.14;50.10
52469;BME280;38381;53.688;10.776;2023-05-10T08:43:55;100514.66;;;17.23;50.30
52469;BME280;38381;53.688;10.776;2023-05-10T08:48:56;100527.63;;;17.62;49.42
52469;BME280;38381;53.688;10.776;2023-05-10T08:53:58;100527.69;;;17.59;49.49
52469;BME280;38381;53.688;10.776;2023-05-10T08:59:00;100538.47;;;17.81;50.09
52469;BME280;38381;53.688;10.776;2023-05-10T09:04:00;100538.63;;;18.09;48.75
52469;BME280;38381;53.688;10.776;2023-05-10T09:09:01;100553.50;;;18.09;48.55
52469;BME280;38381;53.688;10.776;2023-05-10T09:14:02;100544.44;;;17.88;49.30
52469;BME280;38381;53.688;10.776;2023-05-10T09:19:02;100553.84;;;17.97;49.03
52469;BME280;38381;53.688;10.776;2023-05-10T09:24:04;100552.06;;;17.99;48.15
52469;BME280;38381;53.688;10.776;2023-05-10T09:29:05;100553.72;;;17.67;48.41
52469;BME280;38381;53.688;10.776;2023-05-10T09:34:06;100559.44;;;18.16;48.10
52469;BME280;38381;53.688;10.776;2023-05-10T09:39:07;100551.81;;;18.38;47.51
52469;BME280;38381;53.688;10.776;2023-05-10T09:44:07;100564.69;;;18.16;47.75
52469;BME280;38381;53.688;10.776;2023-05-10T09:49:08;100565.81;;;18.38;47.71
52469;BME280;38381;53.688;10.776;2023-05-10T09:54:14;100568.75;;;18.27;48.58
52469;BME280;38381;53.688;10.776;2023-05-10T09:59:15;100573.63;;;18.08;49.16
52469;BME280;38381;53.688;10.776;2023-05-10T10:04:15;100579.69;;;18.10;49.50
52469;BME280;38381;53.688;10.776;2023-05-10T10:09:17;100573.22;;;18.54;49.29
52469;BME280;38381;53.688;10.776;2023-05-10T10:14:18;100586.31;;;18.25;50.12
52469;BME280;38381;53.688;10.776;2023-05-10T10:19:19;100583.84;;;18.19;50.09
52469;BME280;38381;53.688;10.776;2023-05-10T10:24:22;100588.75;;;18.32;50.11
52469;BME280;38381;53.688;10.776;2023-05-10T10:34:32;100598.38;;;18.00;50.23
52469;BME280;38381;53.688;10.776;2023-05-10T10:39:33;100587.63;;;17.75;50.44
52469;BME280;38381;53.688;10.776;2023-05-10T10:44:37;100593.41;;;18.22;50.07
52469;BME280;38381;53.688;10.776;2023-05-10T10:54:49;100595.25;;;18.18;50.32
52469;BME280;38381;53.688;10.776;2023-05-10T10:59:50;100592.06;;;18.68;49.72
52469;BME280;38381;53.688;10.776;2023-05-10T11:04:50;100597.09;;;18.76;49.23
52469;BME280;38381;53.688;10.776;2023-05-10T11:09:51;100596.97;;;18.50;49.92
52469;BME280;38381;53.688;10.776;2023-05-10T11:14:52;100598.75;;;18.80;49.31
52469;BME280;38381;53.688;10.776;2023-05-10T11:20:14;100610.28;;;18.43;50.82
52469;BME280;38381;53.688;10.776;2023-05-10T11:25:14;100604.25;;;19.00;49.23
52469;BME280;38381;53.688;10.776;2023-05-10T11:30:15;100607.25;;;18.88;48.99
52469;BME280;38381;53.688;10.776;2023-05-10T11:35:15;100610.72;;;18.59;49.86
52469;BME280;38381;53.688;10.776;2023-05-10T11:40:16;100611.31;;;18.68;50.74
52469;BME280;38381;53.688;10.776;2023-05-10T11:45:16;100616.16;;;18.53;51.31
52469;BME280;38381;53.688;10.776;2023-05-10T11:50:17;100623.97;;;18.23;51.58
52469;BME280;38381;53.688;10.776;2023-05-10T11:55:18;100632.22;;;17.75;52.79
52469;BME280;38381;53.688;10.776;2023-05-10T12:00:19;100627.69;;;18.16;52.36
52469;BME280;38381;53.688;10.776;2023-05-10T12:05:20;100631.75;;;18.59;51.96
52469;BME280;38381;53.688;10.776;2023-05-10T12:10:25;100645.03;;;18.21;52.43
52469;BME280;38381;53.688;10.776;2023-05-10T12:15:27;100641.28;;;17.99;52.61
52469;BME280;38381;53.688;10.776;2023-05-10T12:20:28;100657.91;;;18.30;53.83
52469;BME280;38381;53.688;10.776;2023-05-10T12:25:35;100657.91;;;18.30;53.21
52469;BME280;38381;53.688;10.776;2023-05-10T12:30:36;100667.44;;;17.64;55.38
52469;BME280;38381;53.688;10.776;2023-05-10T12:35:48;100673.25;;;17.77;56.34
52469;BME280;38381;53.688;10.776;2023-05-10T12:40:49;100677.28;;;18.25;57.88
52469;BME280;38381;53.688;10.776;2023-05-10T12:45:50;100689.81;;;18.15;61.83
52469;BME280;38381;53.688;10.776;2023-05-10T12:50:50;100700.78;;;17.97;63.64
52469;BME280;38381;53.688;10.776;2023-05-10T12:55:51;100708.63;;;17.59;66.73
52469;BME280;38381;53.688;10.776;2023-05-10T13:00:52;100710.56;;;17.53;68.93
52469;BME280;38381;53.688;10.776;2023-05-10T13:05:52;100723.25;;;17.32;69.20
52469;BME280;38381;53.688;10.776;2023-05-10T13:10:52;100726.69;;;17.34;70.44
52469;BME280;38381;53.688;10.776;2023-05-10T13:15:53;100735.81;;;17.16;71.09
52469;BME280;38381;53.688;10.776;2023-05-10T13:20:54;100730.88;;;17.02;72.07
52469;BME280;38381;53.688;10.776;2023-05-10T13:25:55;100740.47;;;17.02;71.77
52469;BME280;38381;53.688;10.776;2023-05-10T13:30:56;100741.50;;;16.96;72.53
52469;BME280;38381;53.688;10.776;2023-05-10T13:35:56;100745.13;;;16.41;73.32
52469;BME280;38381;53.688;10.776;2023-05-10T13:40:57;100750.28;;;15.93;74.19
52469;BME280;38381;53.688;10.776;2023-05-10T13:45:57;100753.13;;;16.32;73.90
52469;BME280;38381;53.688;10.776;2023-05-10T13:50:57;100753.75;;;16.46;73.08
52469;BME280;38381;53.688;10.776;2023-05-10T13:55:58;100757.47;;;15.78;74.05
52469;BME280;38381;53.688;10.776;2023-05-10T14:00:58;100761.06;;;16.28;74.31
52469;BME280;38381;53.688;10.776;2023-05-10T14:05:59;100757.91;;;16.06;75.05
52469;BME280;38381;53.688;10.776;2023-05-10T14:10:59;100757.72;;;16.19;75.37
52469;BME280;38381;53.688;10.776;2023-05-10T14:16:00;100762.34;;;16.03;75.08
52469;BME280;38381;53.688;10.776;2023-05-10T14:21:02;100757.28;;;15.91;75.66
52469;BME280;38381;53.688;10.776;2023-05-10T14:26:02;100764.00;;;16.08;74.81
52469;BME280;38381;53.688;10.776;2023-05-10T14:31:03;100759.13;;;15.85;75.66
52469;BME280;38381;53.688;10.776;2023-05-10T14:36:03;100750.53;;;16.30;74.19
52469;BME280;38381;53.688;10.776;2023-05-10T14:41:04;100754.59;;;15.97;76.16
52469;BME280;38381;53.688;10.776;2023-05-10T14:46:04;100762.88;;;15.66;77.38
52469;BME280;38381;53.688;10.776;2023-05-10T14:51:05;100759.59;;;15.52;78.38
52469;BME280;38381;53.688;10.776;2023-05-10T14:56:05;100765.31;;;15.78;78.55
52469;BME280;38381;53.688;10.776;2023-05-10T15:01:06;100762.59;;;15.86;79.19
52469;BME280;38381;53.688;10.776;2023-05-10T15:06:07;100760.03;;;15.83;79.44
52469;BME280;38381;53.688;10.776;2023-05-10T15:11:08;100759.31;;;15.73;79.65
52469;BME280;38381;53.688;10.776;2023-05-10T15:16:09;100769.00;;;15.63;80.42
52469;BME280;38381;53.688;10.776;2023-05-10T15:21:09;100772.50;;;16.20;78.98
52469;BME280;38381;53.688;10.776;2023-05-10T15:26:10;100767.84;;;15.84;80.42
52469;BME280;38381;53.688;10.776;2023-05-10T15:31:10;100773.06;;;15.87;80.70
52469;BME280;38381;53.688;10.776;2023-05-10T15:36:11;100774.81;;;15.85;80.25
52469;BME280;38381;53.688;10.776;2023-05-10T15:41:11;100779.06;;;15.91;80.69
52469;BME280;38381;53.688;10.776;2023-05-10T15:46:12;100779.97;;;15.92;80.87
52469;BME280;38381;53.688;10.776;2023-05-10T15:51:12;100790.25;;;16.04;80.69
52469;BME280;38381;53.688;10.776;2023-05-10T15:56:13;100797.53;;;15.83;81.30
52469;BME280;38381;53.688;10.776;2023-05-10T16:01:13;100801.81;;;15.87;80.91
52469;BME280;38381;53.688;10.776;2023-05-10T16:06:14;100794.56;;;16.03;79.95
52469;BME280;38381;53.688;10.776;2023-05-10T16:11:14;100799.75;;;16.08;80.47
52469;BME280;38381;53.688;10.776;2023-05-10T16:16:15;100809.22;;;16.15;80.57
52469;BME280;38381;53.688;10.776;2023-05-10T16:21:15;100802.66;;;16.44;79.87
52469;BME280;38381;53.688;10.776;2023-05-10T16:26:16;100810.88;;;16.22;79.02
52469;BME280;38381;53.688;10.776;2023-05-10T16:31:16;100804.19;;;16.03;78.65
52469;BME280;38381;53.688;10.776;2023-05-10T16:36:19;100818.19;;;15.99;78.79
52469;BME280;38381;53.688;10.776;2023-05-10T16:41:20;100821.72;;;15.98;78.47
52469;BME280;38381;53.688;10.776;2023-05-10T16:46:20;100824.16;;;16.10;78.12
52469;BME280;38381;53.688;10.776;2023-05-10T16:51:21;100829.66;;;16.46;77.10
52469;BME280;38381;53.688;10.776;2023-05-10T16:56:21;100822.41;;;16.62;76.84
52469;BME280;38381;53.688;10.776;2023-05-10T17:01:22;100820.25;;;16.34;77.44
52469;BME280;38381;53.688;10.776;2023-05-10T17:06:23;100833.31;;;16.37;76.74
52469;BME280;38381;53.688;10.776;2023-05-10T17:11:23;100833.13;;;16.46;76.95
52469;BME280;38381;53.688;10.776;2023-05-10T17:16:23;100830.38;;;16.56;76.62
52469;BME280;38381;53.688;10.776;2023-05-10T17:21:24;100841.44;;;16.19;78.09
52469;BME280;38381;53.688;10.776;2023-05-10T17:26:25;100835.25;;;16.24;77.34
52469;BME280;38381;53.688;10.776;2023-05-10T17:31:26;100839.47;;;16.33;76.89
52469;BME280;38381;53.688;10.776;2023-05-10T17:36:27;100838.38;;;16.46;76.06
52469;BME280;38381;53.688;10.776;2023-05-10T17:41:27;100841.59;;;16.64;74.83
52469;BME280;38381;53.688;10.776;2023-05-10T17:46:28;100848.28;;;16.82;74.00
52469;BME280;38381;53.688;10.776;2023-05-10T17:51:28;100852.63;;;16.83;73.27
52469;BME280;38381;53.688;10.776;2023-05-10T17:56:29;100849.38;;;16.67;73.54
52469;BME280;38381;53.688;10.776;2023-05-10T18:01:29;100850.09;;;16.77;73.44
52469;BME280;38381;53.688;10.776;2023-05-10T18:06:34;100855.25;;;16.81;73.61
52469;BME280;38381;53.688;10.776;2023-05-10T18:11:35;100867.66;;;16.72;73.61
52469;BME280;38381;53.688;10.776;2023-05-10T18:16:37;100871.97;;;16.73;73.24
52469;BME280;38381;53.688;10.776;2023-05-10T18:21:37;100874.81;;;16.60;73.91
52469;BME280;38381;53.688;10.776;2023-05-10T18:26:38;100880.22;;;16.51;74.45
52469;BME280;38381;53.688;10.776;2023-05-10T18:31:38;100882.97;;;16.42;74.71
52469;BME280;38381;53.688;10.776;2023-05-10T18:36:39;100889.09;;;16.41;74.61
52469;BME280;38381;53.688;10.776;2023-05-10T18:41:39;100894.25;;;16.47;74.52
52469;BME280;38381;53.688;10.776;2023-05-10T18:46:42;100896.88;;;16.44;74.45
52469;BME280;38381;53.688;10.776;2023-05-10T18:51:42;100901.47;;;16.28;75.21
52469;BME280;38381;53.688;10.776;2023-05-10T18:56:43;100903.31;;;16.23;75.26
52469;BME280;38381;53.688;10.776;2023-05-10T19:01:44;100910.66;;;15.98;76.88
52469;BME280;38381;53.688;10.776;2023-05-10T19:06:44;100915.00;;;15.97;76.61
52469;BME280;38381;53.688;10.776;2023-05-10T19:11:45;100919.53;;;15.86;77.53
52469;BME280;38381;53.688;10.776;2023-05-10T19:16:45;100924.69;;;15.91;76.82
52469;BME280;38381;53.688;10.776;2023-05-10T19:21:46;100922.91;;;15.96;76.92
52469;BME280;38381;53.688;10.776;2023-05-10T19:26:46;100929.06;;;15.88;76.75
52469;BME280;38381;53.688;10.776;2023-05-10T19:31:47;100933.53;;;15.80;77.25
52469;BME280;38381;53.688;10.776;2023-05-10T19:36:49;100946.59;;;15.83;76.91
52469;BME280;38381;53.688;10.776;2023-05-10T19:41:49;100961.38;;;15.83;76.93
52469;BME280;38381;53.688;10.776;2023-05-10T19:46:49;100961.44;;;15.81;76.89
52469;BME280;38381;53.688;10.776;2023-05-10T19:51:50;100964.13;;;15.70;77.55
52469;BME280;38381;53.688;10.776;2023-05-10T19:56:51;100965.03;;;15.66;77.80
52469;BME280;38381;53.688;10.776;2023-05-10T20:01:51;100965.94;;;15.62;77.70
52469;BME280;38381;53.688;10.776;2023-05-10T20:06:52;100976.38;;;15.67;77.28
52469;BME280;38381;53.688;10.776;2023-05-10T20:11:52;100973.94;;;15.50;78.90
52469;BME280;38381;53.688;10.776;2023-05-10T20:16:53;100973.84;;;15.58;78.31
52469;BME280;38381;53.688;10.776;2023-05-10T20:21:54;100979.94;;;15.60;78.13
52469;BME280;38381;53.688;10.776;2023-05-10T20:26:56;100980.00;;;15.54;78.08
52469;BME280;38381;53.688;10.776;2023-05-10T20:31:57;100980.91;;;15.51;78.36
52469;BME280;38381;53.688;10.776;2023-05-10T20:36:58;100979.19;;;15.47;78.65
52469;BME280;38381;53.688;10.776;2023-05-10T20:41:58;100984.50;;;15.39;79.23
52469;BME280;38381;53.688;10.776;2023-05-10T20:46:59;100988.94;;;15.33;80.40
52469;BME280;38381;53.688;10.776;2023-05-10T20:52:00;100988.13;;;15.26;80.35
52469;BME280;38381;53.688;10.776;2023-05-10T20:57:00;100993.38;;;15.23;80.16
52469;BME280;38381;53.688;10.776;2023-05-10T21:02:04;100993.41;;;15.20;80.82
52469;BME280;38381;53.688;10.776;2023-05-10T21:07:04;100996.94;;;15.13;82.13
52469;BME280;38381;53.688;10.776;2023-05-10T21:12:05;100992.66;;;15.04;83.31
52469;BME280;38381;53.688;10.776;2023-05-10T21:17:05;101000.59;;;14.93;83.13
52469;BME280;38381;53.688;10.776;2023-05-10T21:22:06;100993.66;;;14.89;83.92
52469;BME280;38381;53.688;10.776;2023-05-10T21:27:07;100996.25;;;14.91;83.29
52469;BME280;38381;53.688;10.776;2023-05-10T21:32:08;100998.06;;;14.79;83.88
52469;BME280;38381;53.688;10.776;2023-05-10T21:37:08;100998.09;;;14.78;83.82
52469;BME280;38381;53.688;10.776;2023-05-10T21:42:09;100995.50;;;14.70;83.98
52469;BME280;38381;53.688;10.776;2023-05-10T21:47:09;101000.78;;;14.68;84.23
52469;BME280;38381;53.688;10.776;2023-05-10T21:52:09;101004.25;;;14.67;83.94
52469;BME280;38381;53.688;10.776;2023-05-10T21:57:10;101004.25;;;14.66;83.80
52469;BME280;38381;53.688;10.776;2023-05-10T22:02:11;100999.91;;;14.66;84.02
52469;BME280;38381;53.688;10.776;2023-05-10T22:07:11;101003.38;;;14.68;83.29
52469;BME280;38381;53.688;10.776;2023-05-10T22:12:12;101005.09;;;14.69;84.29
52469;BME280;38381;53.688;10.776;2023-05-10T22:17:13;101011.22;;;14.67;85.08
52469;BME280;38381;53.688;10.776;2023-05-10T22:22:13;101006.06;;;14.56;85.80
52469;BME280;38381;53.688;10.776;2023-05-10T22:27:13;101003.44;;;14.53;86.14
52469;BME280;38381;53.688;10.776;2023-05-10T22:32:14;101007.81;;;14.43;86.20
52469;BME280;38381;53.688;10.776;2023-05-10T22:37:14;101015.75;;;14.25;88.07
52469;BME280;38381;53.688;10.776;2023-05-10T22:42:16;101018.25;;;14.45;85.88
52469;BME280;38381;53.688;10.776;2023-05-10T22:47:17;101019.94;;;14.55;86.05
52469;BME280;38381;53.688;10.776;2023-05-10T22:52:17;101025.28;;;14.38;86.61
52469;BME280;38381;53.688;10.776;2023-05-10T22:57:18;101034.88;;;14.27;87.30
52469;BME280;38381;53.688;10.776;2023-05-10T23:02:18;101048.81;;;14.17;87.67
52469;BME280;38381;53.688;10.776;2023-05-10T23:07:19;101054.06;;;14.14;87.86
52469;BME280;38381;53.688;10.776;2023-05-10T23:12:19;101054.13;;;13.97;88.28
52469;BME280;38381;53.688;10.776;2023-05-10T23:17:20;101061.03;;;14.08;87.24
52469;BME280;38381;53.688;10.776;2023-05-10T23:22:20;101067.09;;;14.14;86.94
52469;BME280;38381;53.688;10.776;2023-05-10T23:27:21;101073.22;;;14.05;87.06
52469;BME280;38381;53.688;10.776;2023-05-10T23:32:22;101071.47;;;14.10;86.42
52469;BME280;38381;53.688;10.776;2023-05-10T23:37:22;101073.19;;;14.13;86.11
52469;BME280;38381;53.688;10.776;2023-05-10T23:42:23;101078.41;;;14.14;86.48
52469;BME280;38381;53.688;10.776;2023-05-10T23:47:23;101078.41;;;14.13;85.89
52469;BME280;38381;53.688;10.776;2023-05-10T23:52:24;101081.00;;;14.13;85.73
52469;BME280;38381;53.688;10.776;2023-05-10T23:57:24;101081.88;;;14.16;85.67
